Time;durP1;ratioP1;P1;durP2;ratioP2;P2;SDS_P1;SDS_P2;PMS_P1;PMS_P2;Temp;Humidity;BMP_temperature;BMP_pressure;BME280_temperature;BME280_humidity;BME280_pressure;Samples;Min_cycle;Max_cycle;Signal;HPM_P1;HPM_P2
2022/03/25 00:01:19;;;;;;;16.45;12.32;;;;;;;;;;5078840;28;20031;-79
2022/03/25 00:03:44;;;;;;;14.98;12.10;;;;;;;;;;5062009;28;20059;-79
2022/03/25 00:06:10;;;;;;;15.57;12.43;;;;;;;;;;5095976;28;20031;-79
2022/03/25 00:08:35;;;;;;;15.38;13.32;;;;;;;;;;5095473;28;20154;-78
2022/03/25 00:11:02;;;;;;;16.92;13.43;;;;;;;;;;5078896;28;20058;-79
2022/03/25 00:13:28;;;;;;;14.20;12.68;;;;;;;;;;5092878;28;20368;-79
2022/03/25 00:15:53;;;;;;;16.02;13.35;;;;;;;;;;5058746;28;20078;-79
2022/03/25 00:18:19;;;;;;;14.40;12.32;;;;;;;;;;5058285;28;20047;-78
2022/03/25 00:20:45;;;;;;;18.13;13.75;;;;;;;;;;5058570;28;20089;-79
2022/03/25 00:23:11;;;;;;;17.77;13.38;;;;;;;;;;5057524;28;20036;-79
2022/03/25 00:25:36;;;;;;;13.93;12.25;;;;;;;;;;5074604;28;20086;-80
2022/03/25 00:28:02;;;;;;;14.48;12.63;;;;;;;;;;5041853;28;20444;-79
2022/03/25 00:30:28;;;;;;;15.68;13.15;;;;;;;;;;5074891;28;20026;-79
2022/03/25 00:32:54;;;;;;;16.15;14.10;;;;;;;;;;5041581;28;20032;-80
2022/03/25 00:35:20;;;;;;;13.75;12.35;;;;;;;;;;5058529;28;20062;-79
2022/03/25 00:37:46;;;;;;;15.20;12.25;;;;;;;;;;5041755;28;20169;-79
2022/03/25 00:40:11;;;;;;;15.45;13.30;;;;;;;;;;5041418;28;20035;-79
2022/03/25 00:42:37;;;;;;;15.25;13.43;;;;;;;;;;5058319;28;20040;-80
2022/03/25 00:45:04;;;;;;;14.32;12.00;;;;;;;;;;5058174;28;20032;-80
2022/03/25 00:47:29;;;;;;;14.60;13.10;;;;;;;;;;5041433;28;20032;-79
2022/03/25 00:49:55;;;;;;;14.75;12.43;;;;;;;;;;5080801;28;20019;-80
2022/03/25 00:52:20;;;;;;;15.20;13.18;;;;;;;;;;5086859;28;20108;-80
2022/03/25 00:54:46;;;;;;;13.82;12.45;;;;;;;;;;5094629;28;20032;-79
2022/03/25 00:57:11;;;;;;;15.50;12.45;;;;;;;;;;5095163;28;20039;-80
2022/03/25 00:59:37;;;;;;;15.35;12.98;;;;;;;;;;5074367;28;20510;-80
2022/03/25 01:02:03;;;;;;;14.13;12.35;;;;;;;;;;5041279;28;20410;-80
2022/03/25 01:04:29;;;;;;;16.42;13.55;;;;;;;;;;5073599;28;20032;-80
2022/03/25 01:06:55;;;;;;;16.58;12.30;;;;;;;;;;5074937;28;20084;-80
2022/03/25 01:09:21;;;;;;;15.20;12.25;;;;;;;;;;5074209;28;20032;-80
2022/03/25 01:11:47;;;;;;;14.35;12.68;;;;;;;;;;5074411;28;20550;-80
2022/03/25 01:14:13;;;;;;;15.07;12.80;;;;;;;;;;5082839;28;20032;-79
2022/03/25 01:16:39;;;;;;;12.88;11.52;;;;;;;;;;5077600;28;20039;-79
2022/03/25 01:19:05;;;;;;;13.50;12.07;;;;;;;;;;5061154;28;20553;-79
2022/03/25 01:21:32;;;;;;;16.95;12.88;;;;;;;;;;5061067;28;20123;-80
2022/03/25 01:23:57;;;;;;;14.38;12.10;;;;;;;;;;5060476;28;20067;-80
2022/03/25 01:26:23;;;;;;;13.95;12.32;;;;;;;;;;5077305;28;20088;-80
2022/03/25 01:28:49;;;;;;;14.40;11.35;;;;;;;;;;5060462;28;20494;-80
2022/03/25 01:31:14;;;;;;;17.70;12.93;;;;;;;;;;5077794;28;20028;-80
2022/03/25 01:33:40;;;;;;;13.43;11.50;;;;;;;;;;5094119;28;20374;-80
2022/03/25 01:36:06;;;;;;;13.10;11.68;;;;;;;;;;5077581;28;20036;-80
2022/03/25 01:38:32;;;;;;;13.82;12.32;;;;;;;;;;5094397;28;20035;-79
2022/03/25 01:40:58;;;;;;;14.40;12.00;;;;;;;;;;5077173;28;20501;-80
2022/03/25 01:43:24;;;;;;;14.07;11.93;;;;;;;;;;5077201;28;20066;-80
2022/03/25 01:45:49;;;;;;;14.23;12.43;;;;;;;;;;5043071;28;20046;-80
2022/03/25 01:48:16;;;;;;;14.30;11.48;;;;;;;;;;5040175;28;20779;-80
2022/03/25 01:50:43;;;;;;;14.48;11.50;;;;;;;;;;5052888;28;20036;-79
2022/03/25 01:53:17;;;;;;;17.83;13.15;;;;;;;;;;5073176;28;20036;-80
2022/03/25 01:55:56;;;;;;;14.73;11.23;;;;;;;;;;5073737;28;20040;-79
2022/03/25 01:58:22;;;;;;;14.93;12.68;;;;;;;;;;5061974;28;20028;-79
2022/03/25 02:00:47;;;;;;;14.45;12.02;;;;;;;;;;5076692;28;20390;-79
2022/03/25 02:03:13;;;;;;;13.25;11.07;;;;;;;;;;5094232;28;20041;-79
2022/03/25 02:05:39;;;;;;;13.88;11.48;;;;;;;;;;5077273;28;20047;-79
2022/03/25 02:08:04;;;;;;;15.32;12.40;;;;;;;;;;5077084;28;20110;-79
2022/03/25 02:10:30;;;;;;;14.63;11.35;;;;;;;;;;5076462;28;20070;-79
2022/03/25 02:12:55;;;;;;;14.20;11.98;;;;;;;;;;5076869;28;20032;-79
2022/03/25 02:15:37;;;;;;;15.07;11.77;;;;;;;;;;5094833;28;20039;-79
2022/03/25 02:18:05;;;;;;;13.68;12.18;;;;;;;;;;5098331;28;20036;-79
2022/03/25 02:20:31;;;;;;;12.55;11.25;;;;;;;;;;5097747;28;20035;-79
2022/03/25 02:22:56;;;;;;;12.70;11.40;;;;;;;;;;5080586;28;20111;-79
2022/03/25 02:25:22;;;;;;;14.07;12.57;;;;;;;;;;5064101;28;20093;-79
2022/03/25 02:27:48;;;;;;;12.95;11.65;;;;;;;;;;5081080;28;20393;-79
2022/03/25 02:30:13;;;;;;;14.05;11.32;;;;;;;;;;5097509;28;20031;-79
2022/03/25 02:32:40;;;;;;;14.77;13.20;;;;;;;;;;5097906;28;20035;-79
2022/03/25 02:35:06;;;;;;;13.75;11.95;;;;;;;;;;5080696;28;20610;-79
2022/03/25 02:37:31;;;;;;;12.57;11.27;;;;;;;;;;5097734;28;20027;-80
2022/03/25 02:39:57;;;;;;;14.73;12.43;;;;;;;;;;5079349;28;20070;-80
2022/03/25 02:42:22;;;;;;;14.20;12.35;;;;;;;;;;5076874;28;20036;-80
2022/03/25 02:44:48;;;;;;;13.95;12.00;;;;;;;;;;5060448;28;20073;-79
2022/03/25 02:47:14;;;;;;;15.25;12.57;;;;;;;;;;5060844;28;20043;-79
2022/03/25 02:49:40;;;;;;;12.85;11.10;;;;;;;;;;5066943;28;20051;-79
2022/03/25 02:52:05;;;;;;;13.25;11.57;;;;;;;;;;5083763;28;20524;-79
2022/03/25 02:54:31;;;;;;;12.35;11.15;;;;;;;;;;5059801;28;20048;-80
2022/03/25 02:56:58;;;;;;;15.70;11.57;;;;;;;;;;5075720;28;20054;-80
2022/03/25 02:59:24;;;;;;;13.27;10.73;;;;;;;;;;5080088;28;20489;-80
2022/03/25 03:01:50;;;;;;;12.77;11.45;;;;;;;;;;5080554;28;20040;-79
2022/03/25 03:04:16;;;;;;;13.18;11.77;;;;;;;;;;5079620;28;20036;-80
2022/03/25 03:06:43;;;;;;;12.60;11.27;;;;;;;;;;5080088;28;20051;-80
2022/03/25 03:09:09;;;;;;;12.75;11.45;;;;;;;;;;5080493;28;20032;-80
2022/03/25 03:11:35;;;;;;;13.35;11.70;;;;;;;;;;5096749;28;20038;-80
2022/03/25 03:14:01;;;;;;;13.88;12.13;;;;;;;;;;5096999;28;20031;-80
2022/03/25 03:16:26;;;;;;;14.23;11.43;;;;;;;;;;5062957;28;20932;-80
2022/03/25 03:18:52;;;;;;;14.32;12.40;;;;;;;;;;5079444;28;20487;-80
2022/03/25 03:21:17;;;;;;;13.80;12.27;;;;;;;;;;5063211;28;20494;-80
2022/03/25 03:23:43;;;;;;;13.20;11.85;;;;;;;;;;5079418;28;20020;-80
2022/03/25 03:26:09;;;;;;;14.18;11.88;;;;;;;;;;5079170;28;20050;-80
2022/03/25 03:28:35;;;;;;;13.25;11.88;;;;;;;;;;5062436;28;20080;-79
2022/03/25 03:31:00;;;;;;;13.25;11.93;;;;;;;;;;5063210;28;20133;-80
2022/03/25 03:33:26;;;;;;;15.20;12.13;;;;;;;;;;5062238;28;20058;-80
2022/03/25 03:35:51;;;;;;;14.43;12.50;;;;;;;;;;5079443;28;20512;-81
2022/03/25 03:38:16;;;;;;;13.38;12.07;;;;;;;;;;5078720;28;20082;-80
2022/03/25 03:40:42;;;;;;;14.70;12.05;;;;;;;;;;5062667;28;20391;-80
2022/03/25 03:43:07;;;;;;;14.10;12.55;;;;;;;;;;5079573;28;20038;-80
2022/03/25 03:45:33;;;;;;;13.38;11.70;;;;;;;;;;5079379;28;20046;-79
2022/03/25 03:47:58;;;;;;;13.23;11.82;;;;;;;;;;5095649;28;20039;-80
2022/03/25 03:50:24;;;;;;;12.82;11.52;;;;;;;;;;5075513;28;20067;-80
2022/03/25 03:52:49;;;;;;;14.32;11.43;;;;;;;;;;5075260;28;20519;-80
2022/03/25 03:55:15;;;;;;;13.98;10.95;;;;;;;;;;5062104;28;20071;-80
2022/03/25 03:57:40;;;;;;;14.40;12.90;;;;;;;;;;5059124;28;20039;-80
2022/03/25 04:00:10;;;;;;;12.00;10.80;;;;;;;;;;5072977;28;20036;-80
2022/03/25 04:02:36;;;;;;;14.35;11.95;;;;;;;;;;5079863;28;20032;-80
2022/03/25 04:05:02;;;;;;;13.77;11.48;;;;;;;;;;5079031;28;20043;-80
2022/03/25 04:07:27;;;;;;;13.77;11.88;;;;;;;;;;5079247;28;20035;-80
2022/03/25 04:09:53;;;;;;;13.90;11.65;;;;;;;;;;5078278;28;20067;-80
2022/03/25 04:12:18;;;;;;;14.93;12.43;;;;;;;;;;5078591;28;20394;-80
2022/03/25 04:14:44;;;;;;;13.00;11.70;;;;;;;;;;5078517;28;20435;-79
2022/03/25 04:17:11;;;;;;;13.07;11.73;;;;;;;;;;5078765;28;20043;-80
2022/03/25 04:19:36;;;;;;;13.48;11.70;;;;;;;;;;5095768;28;20046;-79
2022/03/25 04:22:02;;;;;;;14.40;12.57;;;;;;;;;;5078510;28;20135;-79
2022/03/25 04:24:27;;;;;;;14.20;11.75;;;;;;;;;;5095220;28;20130;-80
2022/03/25 04:26:52;;;;;;;12.38;11.13;;;;;;;;;;5074626;28;20066;-80
2022/03/25 04:29:18;;;;;;;13.18;11.75;;;;;;;;;;5058677;28;20047;-80
2022/03/25 04:31:44;;;;;;;15.00;12.50;;;;;;;;;;5075548;28;20039;-80
2022/03/25 04:34:10;;;;;;;13.25;11.82;;;;;;;;;;5075083;28;20508;-80
2022/03/25 04:36:35;;;;;;;13.88;12.38;;;;;;;;;;5074700;28;20036;-79
2022/03/25 04:39:01;;;;;;;14.90;11.80;;;;;;;;;;5073566;28;20436;-79
2022/03/25 04:41:26;;;;;;;14.27;12.82;;;;;;;;;;5074924;28;20040;-79
2022/03/25 04:43:52;;;;;;;13.57;11.35;;;;;;;;;;5073947;28;20036;-79
2022/03/25 04:46:17;;;;;;;12.90;11.50;;;;;;;;;;5056043;28;20437;-79
2022/03/25 04:48:43;;;;;;;13.90;11.88;;;;;;;;;;5056744;28;20046;-79
2022/03/25 04:51:08;;;;;;;13.45;11.90;;;;;;;;;;5059247;28;20516;-79
2022/03/25 04:53:34;;;;;;;14.25;11.82;;;;;;;;;;5075833;28;20032;-79
2022/03/25 04:56:00;;;;;;;13.82;11.77;;;;;;;;;;5094673;28;20035;-79
2022/03/25 04:58:26;;;;;;;13.45;12.05;;;;;;;;;;5077509;28;20562;-79
2022/03/25 05:00:51;;;;;;;13.82;11.32;;;;;;;;;;5094428;28;20035;-79
2022/03/25 05:03:17;;;;;;;12.60;11.30;;;;;;;;;;5093495;28;20088;-79
2022/03/25 05:05:43;;;;;;;13.30;12.00;;;;;;;;;;5077681;28;20027;-79
2022/03/25 05:08:09;;;;;;;12.48;11.18;;;;;;;;;;5093683;28;20042;-79
2022/03/25 05:10:35;;;;;;;13.27;11.70;;;;;;;;;;5092735;28;20106;-79
2022/03/25 05:13:01;;;;;;;13.48;11.70;;;;;;;;;;5094641;28;20065;-78
2022/03/25 05:15:26;;;;;;;13.18;11.63;;;;;;;;;;5077421;28;20049;-79
2022/03/25 05:17:52;;;;;;;16.30;10.77;;;;;;;;;;5060854;28;20644;-78
2022/03/25 05:20:19;;;;;;;12.52;11.25;;;;;;;;;;5077860;28;20074;-78
2022/03/25 05:22:46;;;;;;;12.60;11.38;;;;;;;;;;5094033;28;20040;-79
2022/03/25 05:25:11;;;;;;;14.52;12.45;;;;;;;;;;5094237;28;20066;-79
2022/03/25 05:27:44;;;;;;;12.48;11.27;;;;;;;;;;5077484;28;20114;-78
2022/03/25 05:30:11;;;;;;;14.23;11.68;;;;;;;;;;5094634;28;20031;-78
2022/03/25 05:32:38;;;;;;;12.43;11.13;;;;;;;;;;5077885;28;20028;-79
2022/03/25 05:35:06;;;;;;;15.32;12.60;;;;;;;;;;5077936;28;20039;-78
2022/03/25 05:37:31;;;;;;;13.80;12.40;;;;;;;;;;5094431;28;20081;-79
2022/03/25 05:39:57;;;;;;;15.02;11.57;;;;;;;;;;5094013;28;20493;-79
2022/03/25 05:42:22;;;;;;;13.55;11.57;;;;;;;;;;5077339;28;20051;-79
2022/03/25 05:44:48;;;;;;;13.90;12.02;;;;;;;;;;5093866;28;20035;-78
2022/03/25 05:47:13;;;;;;;12.95;11.45;;;;;;;;;;5093908;28;20429;-79
2022/03/25 05:49:38;;;;;;;12.63;11.27;;;;;;;;;;5076955;28;20504;-79
2022/03/25 05:52:05;;;;;;;13.40;12.00;;;;;;;;;;5073181;28;20071;-79
2022/03/25 05:54:31;;;;;;;13.82;11.38;;;;;;;;;;5057462;28;20039;-78
2022/03/25 05:56:56;;;;;;;13.18;11.32;;;;;;;;;;5060574;28;20464;-79
2022/03/25 05:59:22;;;;;;;13.82;12.40;;;;;;;;;;5073437;28;20403;-78
2022/03/25 06:01:48;;;;;;;12.88;11.48;;;;;;;;;;5057138;28;20044;-79
2022/03/25 06:04:13;;;;;;;14.10;12.10;;;;;;;;;;5042897;28;20051;-79
2022/03/25 06:06:39;;;;;;;13.20;11.80;;;;;;;;;;5093203;28;20414;-78
2022/03/25 06:09:04;;;;;;;15.20;11.25;;;;;;;;;;5076724;28;20031;-79
2022/03/25 06:11:29;;;;;;;11.70;9.65;;;;;;;;;;5076987;28;20440;-78
2022/03/25 06:13:55;;;;;;;13.77;10.82;;;;;;;;;;5076337;28;20034;-79
2022/03/25 06:16:20;;;;;;;15.13;11.20;;;;;;;;;;5060061;28;20466;-79
2022/03/25 06:18:46;;;;;;;12.65;11.35;;;;;;;;;;5093454;28;20405;-85
2022/03/25 06:21:12;;;;;;;12.18;10.52;;;;;;;;;;5077115;28;20485;-81
2022/03/25 06:23:37;;;;;;;12.38;10.48;;;;;;;;;;5059680;28;20516;-81
2022/03/25 06:26:05;;;;;;;12.40;10.43;;;;;;;;;;5060182;28;20053;-81
2022/03/25 06:28:31;;;;;;;14.13;10.15;;;;;;;;;;5093995;28;20035;-81
2022/03/25 06:30:56;;;;;;;13.27;11.48;;;;;;;;;;5060329;28;20032;-81
2022/03/25 06:33:22;;;;;;;13.65;12.15;;;;;;;;;;5093669;28;20039;-81
2022/03/25 06:35:47;;;;;;;11.68;10.38;;;;;;;;;;5093592;28;20043;-80
2022/03/25 06:38:13;;;;;;;13.30;10.15;;;;;;;;;;5076372;28;20039;-80
2022/03/25 06:40:38;;;;;;;13.07;10.40;;;;;;;;;;5076734;28;20044;-80
2022/03/25 06:43:05;;;;;;;17.83;12.18;;;;;;;;;;5090634;28;20075;-81
2022/03/25 06:45:31;;;;;;;15.48;12.75;;;;;;;;;;5057045;28;20061;-80
2022/03/25 06:47:57;;;;;;;21.10;14.23;;;;;;;;;;5039550;28;20036;-80
2022/03/25 06:50:24;;;;;;;16.85;12.90;;;;;;;;;;5056645;28;20040;-81
2022/03/25 06:52:50;;;;;;;19.25;13.60;;;;;;;;;;5052985;28;20046;-80
2022/03/25 06:55:16;;;;;;;14.48;11.93;;;;;;;;;;5073365;28;20546;-80
2022/03/25 06:57:41;;;;;;;21.83;14.43;;;;;;;;;;5083218;28;20031;-80
2022/03/25 07:00:12;;;;;;;18.65;13.68;;;;;;;;;;5073148;28;20043;-80
2022/03/25 07:02:39;;;;;;;16.95;12.07;;;;;;;;;;5058955;28;20032;-80
2022/03/25 07:05:05;;;;;;;19.05;12.05;;;;;;;;;;5076595;28;20036;-80
2022/03/25 07:07:31;;;;;;;23.20;13.23;;;;;;;;;;5043006;28;20024;-80
2022/03/25 07:09:57;;;;;;;20.17;12.98;;;;;;;;;;5068644;28;20549;-81
2022/03/25 07:12:22;;;;;;;17.70;12.95;;;;;;;;;;5096787;28;20028;-81
2022/03/25 07:14:48;;;;;;;16.02;11.48;;;;;;;;;;5082573;28;20040;-81
2022/03/25 07:17:13;;;;;;;18.27;11.23;;;;;;;;;;5076157;28;20405;-82
2022/03/25 07:19:38;;;;;;;17.80;12.35;;;;;;;;;;5059881;28;20410;-81
2022/03/25 07:22:04;;;;;;;16.27;12.20;;;;;;;;;;5059127;28;20390;-82
2022/03/25 07:24:29;;;;;;;18.60;11.52;;;;;;;;;;5059562;28;20055;-81
2022/03/25 07:26:55;;;;;;;15.68;11.75;;;;;;;;;;5059445;28;20038;-81
2022/03/25 07:29:21;;;;;;;13.55;11.02;;;;;;;;;;5059552;28;20032;-81
2022/03/25 07:31:46;;;;;;;14.68;11.60;;;;;;;;;;5059283;28;20039;-81
2022/03/25 07:34:13;;;;;;;19.85;12.05;;;;;;;;;;5042504;28;20086;-81
2022/03/25 07:36:38;;;;;;;18.48;12.10;;;;;;;;;;5059266;28;20064;-82
2022/03/25 07:39:04;;;;;;;13.68;11.07;;;;;;;;;;5075835;28;20115;-81
2022/03/25 07:41:29;;;;;;;20.85;13.57;;;;;;;;;;5059400;28;20029;-81
2022/03/25 07:43:55;;;;;;;21.83;14.20;;;;;;;;;;5068914;28;20035;-81
2022/03/25 07:46:20;;;;;;;23.10;15.15;;;;;;;;;;5095903;28;20050;-80
2022/03/25 07:48:47;;;;;;;26.90;16.42;;;;;;;;;;5078807;28;20077;-81
2022/03/25 07:51:12;;;;;;;23.05;16.90;;;;;;;;;;5079099;28;20035;-81
2022/03/25 07:53:38;;;;;;;21.90;15.85;;;;;;;;;;5061931;28;20378;-80
2022/03/25 07:56:04;;;;;;;23.70;15.80;;;;;;;;;;5096039;28;20501;-81
2022/03/25 07:58:29;;;;;;;24.13;15.90;;;;;;;;;;5079230;28;20456;-81
2022/03/25 08:00:55;;;;;;;17.85;13.93;;;;;;;;;;5095905;28;20031;-79
2022/03/25 08:03:21;;;;;;;17.20;13.57;;;;;;;;;;5078901;28;20066;-79
2022/03/25 08:05:50;;;;;;;15.77;13.23;;;;;;;;;;5079375;28;20039;-80
2022/03/25 08:08:18;;;;;;;17.95;13.88;;;;;;;;;;5062993;28;20035;-80
2022/03/25 08:10:43;;;;;;;17.80;13.25;;;;;;;;;;5079391;28;20375;-80
2022/03/25 08:13:10;;;;;;;17.67;13.50;;;;;;;;;;5095498;28;20069;-80
2022/03/25 08:15:36;;;;;;;17.73;12.52;;;;;;;;;;5078783;28;20386;-80
2022/03/25 08:18:03;;;;;;;15.88;13.15;;;;;;;;;;5078784;28;20043;-81
2022/03/25 08:20:40;;;;;;;17.00;12.10;;;;;;;;;;5078985;28;20039;-81
2022/03/25 08:23:07;;;;;;;17.48;11.85;;;;;;;;;;5079031;28;20394;-80
2022/03/25 08:28:17;;;;;;;16.55;13.25;;;;;;;;;;5098005;28;20054;-80
2022/03/25 08:30:42;;;;;;;17.55;14.77;;;;;;;;;;5095380;28;20474;-81
2022/03/25 08:33:08;;;;;;;21.50;14.02;;;;;;;;;;5077938;28;20043;-80
2022/03/25 08:35:34;;;;;;;16.27;14.57;;;;;;;;;;5077958;28;20031;-81
2022/03/25 08:38:00;;;;;;;18.90;14.18;;;;;;;;;;5061513;28;20122;-81
2022/03/25 08:40:26;;;;;;;18.77;14.95;;;;;;;;;;5078020;28;20374;-81
2022/03/25 08:42:52;;;;;;;20.58;15.88;;;;;;;;;;5095169;28;20070;-81
2022/03/25 08:45:17;;;;;;;21.90;17.55;;;;;;;;;;5077844;28;20031;-81
2022/03/25 08:47:44;;;;;;;26.45;19.67;;;;;;;;;;5078126;28;20044;-81
2022/03/25 08:50:12;;;;;;;31.98;22.90;;;;;;;;;;5061539;28;20039;-81
2022/03/25 08:52:39;;;;;;;29.88;23.13;;;;;;;;;;5057768;28;20036;-81
2022/03/25 08:55:06;;;;;;;36.03;23.98;;;;;;;;;;5041486;28;20032;-81
2022/03/25 08:57:32;;;;;;;33.72;25.45;;;;;;;;;;5080201;28;20028;-81
2022/03/25 08:59:57;;;;;;;33.63;24.80;;;;;;;;;;5086902;28;20039;-81
2022/03/25 09:02:23;;;;;;;32.55;23.60;;;;;;;;;;5061083;28;20547;-81
2022/03/25 09:04:48;;;;;;;31.45;23.63;;;;;;;;;;5077577;28;20088;-81
2022/03/25 09:07:14;;;;;;;29.85;23.85;;;;;;;;;;5077489;28;20093;-81
2022/03/25 09:09:40;;;;;;;29.90;23.60;;;;;;;;;;5078024;28;20104;-81
2022/03/25 09:12:07;;;;;;;31.05;22.33;;;;;;;;;;5077768;28;20035;-81
2022/03/25 09:14:33;;;;;;;28.10;20.63;;;;;;;;;;5074510;28;20032;-81
2022/03/25 09:16:59;;;;;;;24.55;20.75;;;;;;;;;;5074391;28;20051;-81
2022/03/25 09:19:24;;;;;;;27.83;21.30;;;;;;;;;;5074513;28;20035;-80
2022/03/25 09:21:50;;;;;;;26.20;19.80;;;;;;;;;;5040975;28;20153;-81
2022/03/25 09:24:15;;;;;;;25.77;20.85;;;;;;;;;;5056818;28;20050;-81
2022/03/25 09:26:41;;;;;;;22.58;18.88;;;;;;;;;;5057240;28;20032;-81
2022/03/25 09:29:06;;;;;;;26.63;20.08;;;;;;;;;;5073914;28;20035;-81
2022/03/25 09:31:32;;;;;;;24.13;18.88;;;;;;;;;;5057227;28;20036;-81
2022/03/25 09:35:08;;;;;;;22.83;19.90;;;;;;;;;;5073894;28;20406;-80
2022/03/25 09:36:43;;;;;;;24.02;19.42;;;;;;;;;;5076879;28;20584;-81
2022/03/25 09:39:08;;;;;;;24.52;19.42;;;;;;;;;;5057029;28;20074;-80
2022/03/25 09:41:35;;;;;;;20.20;17.35;;;;;;;;;;5073868;28;20040;-81
2022/03/25 09:44:00;;;;;;;19.48;15.93;;;;;;;;;;5047912;28;20020;-81
2022/03/25 09:46:26;;;;;;;23.13;16.13;;;;;;;;;;5040442;28;20139;-80
2022/03/25 09:48:51;;;;;;;22.40;17.60;;;;;;;;;;5040512;28;20066;-81
2022/03/25 09:51:17;;;;;;;20.52;15.88;;;;;;;;;;5077530;28;20135;-81
2022/03/25 09:53:43;;;;;;;19.35;15.90;;;;;;;;;;5076639;28;20413;-81
2022/03/25 09:56:08;;;;;;;18.77;15.88;;;;;;;;;;5060285;28;20043;-81
2022/03/25 09:58:34;;;;;;;19.02;14.88;;;;;;;;;;5077257;28;20500;-81
2022/03/25 10:00:59;;;;;;;19.05;15.52;;;;;;;;;;5077108;28;20039;-81
2022/03/25 10:03:27;;;;;;;17.80;14.95;;;;;;;;;;5060692;28;20417;-80
2022/03/25 10:05:56;;;;;;;17.80;15.05;;;;;;;;;;5094248;28;20047;-81
2022/03/25 10:08:29;;;;;;;19.58;14.63;;;;;;;;;;5076907;28;20032;-81
2022/03/25 10:10:54;;;;;;;17.88;13.38;;;;;;;;;;5060002;28;20027;-81
2022/03/25 10:13:19;;;;;;;16.23;12.77;;;;;;;;;;5076560;28;20035;-80
2022/03/25 10:15:45;;;;;;;16.70;14.07;;;;;;;;;;5060030;28;20127;-79
2022/03/25 10:18:10;;;;;;;16.92;13.65;;;;;;;;;;5093713;28;20032;-79
2022/03/25 10:20:40;;;;;;;16.35;13.20;;;;;;;;;;5094032;28;20545;-79
2022/03/25 10:23:17;;;;;;;17.92;13.55;;;;;;;;;;5077354;28;20123;-78
2022/03/25 10:25:44;;;;;;;18.50;14.13;;;;;;;;;;5076588;28;20109;-78
2022/03/25 10:28:29;;;;;;;17.90;14.02;;;;;;;;;;5093796;28;20519;-78
2022/03/25 10:30:59;;;;;;;18.77;13.52;;;;;;;;;;5095154;28;20032;-79
2022/03/25 10:33:32;;;;;;;12.63;11.25;;;;;;;;;;5076942;28;20030;-78
2022/03/25 10:36:08;;;;;;;14.13;11.52;;;;;;;;;;5094114;28;20050;-81
2022/03/25 10:38:46;;;;;;;14.57;11.73;;;;;;;;;;5081047;28;20134;-80
2022/03/25 10:41:19;;;;;;;14.55;11.25;;;;;;;;;;5114450;28;20032;-80
2022/03/25 10:43:51;;;;;;;15.68;11.43;;;;;;;;;;5081498;28;20448;-79
2022/03/25 10:46:41;;;;;;;13.65;10.35;;;;;;;;;;5097111;28;20071;-79
2022/03/25 10:49:11;;;;;;;13.55;10.43;;;;;;;;;;5114601;28;20108;-79
2022/03/25 10:51:39;;;;;;;13.57;10.75;;;;;;;;;;5093684;28;20039;-79
2022/03/25 10:54:08;;;;;;;15.25;10.10;;;;;;;;;;5043540;28;20170;-78
2022/03/25 10:56:53;;;;;;;12.50;8.75;;;;;;;;;;5060690;28;20406;-78
2022/03/25 10:59:32;;;;;;;15.00;10.38;;;;;;;;;;5076906;28;20119;-78
2022/03/25 11:01:58;;;;;;;11.82;9.32;;;;;;;;;;5076962;28;20097;-79
2022/03/25 11:04:24;;;;;;;11.38;9.70;;;;;;;;;;5043248;28;20398;-78
2022/03/25 11:06:50;;;;;;;12.65;9.00;;;;;;;;;;5060141;28;20031;-79
2022/03/25 11:09:16;;;;;;;12.95;8.48;;;;;;;;;;5076170;28;20028;-79
2022/03/25 11:11:42;;;;;;;12.82;8.70;;;;;;;;;;5059996;28;20036;-78
2022/03/25 11:14:09;;;;;;;11.65;8.13;;;;;;;;;;5048053;28;20032;-79
2022/03/25 11:16:35;;;;;;;9.73;8.13;;;;;;;;;;5093403;28;20051;-78
2022/03/25 11:19:01;;;;;;;9.45;7.55;;;;;;;;;;5076396;28;20123;-78
2022/03/25 11:21:27;;;;;;;14.82;8.38;;;;;;;;;;5076519;28;20106;-78
2022/03/25 11:23:53;;;;;;;9.65;7.22;;;;;;;;;;5075714;28;20055;-78
2022/03/25 11:26:21;;;;;;;9.75;8.05;;;;;;;;;;5059213;28;20105;-78
2022/03/25 11:28:46;;;;;;;10.57;6.95;;;;;;;;;;5076546;28;20490;-79
2022/03/25 11:31:12;;;;;;;7.72;6.50;;;;;;;;;;5059783;28;20039;-78
2022/03/25 11:34:12;;;;;;;10.30;8.45;;;;;;;;;;5076113;28;20032;-79
2022/03/25 11:36:41;;;;;;;11.38;7.82;;;;;;;;;;5075848;28;20036;-78
2022/03/25 11:39:24;;;;;;;10.93;7.93;;;;;;;;;;5059651;28;20039;-79
2022/03/25 11:42:00;;;;;;;9.82;8.05;;;;;;;;;;5076284;28;20079;-79
2022/03/25 11:44:26;;;;;;;8.95;7.05;;;;;;;;;;5077008;28;20028;-79
2022/03/25 11:47:00;;;;;;;8.05;6.95;;;;;;;;;;5042616;28;20040;-78
2022/03/25 11:49:27;;;;;;;10.00;7.70;;;;;;;;;;5092403;28;20064;-79
2022/03/25 11:51:52;;;;;;;11.00;7.30;;;;;;;;;;5047675;28;20502;-81
2022/03/25 11:54:48;;;;;;;10.52;7.47;;;;;;;;;;5041714;28;20074;-81
2022/03/25 11:57:34;;;;;;;7.95;6.70;;;;;;;;;;5044923;28;20043;-81
2022/03/25 12:00:08;;;;;;;10.07;7.10;;;;;;;;;;5075652;28;20032;-80
2022/03/25 12:02:36;;;;;;;7.95;6.20;;;;;;;;;;5075874;28;20028;-80
2022/03/25 12:05:03;;;;;;;9.18;6.60;;;;;;;;;;5059315;28;20036;-81
2022/03/25 12:07:29;;;;;;;8.80;6.50;;;;;;;;;;5041921;28;20086;-80
2022/03/25 12:09:54;;;;;;;10.77;6.40;;;;;;;;;;5058869;28;20064;-81
2022/03/25 12:12:50;;;;;;;9.20;6.22;;;;;;;;;;5058983;28;20043;-81
2022/03/25 12:15:15;;;;;;;7.90;6.20;;;;;;;;;;5090099;28;20028;-81
2022/03/25 12:17:41;;;;;;;9.35;6.10;;;;;;;;;;5075246;28;20043;-80
2022/03/25 12:20:07;;;;;;;7.38;5.10;;;;;;;;;;5058440;28;20042;-79
2022/03/25 12:22:34;;;;;;;10.80;6.68;;;;;;;;;;5057847;28;20028;-80
2022/03/25 12:25:11;;;;;;;7.68;5.45;;;;;;;;;;5058707;28;20028;-78
2022/03/25 12:27:37;;;;;;;8.57;6.18;;;;;;;;;;5075432;28;20163;-79
2022/03/25 12:30:03;;;;;;;8.02;5.70;;;;;;;;;;5075692;28;20070;-78
2022/03/25 12:32:34;;;;;;;6.20;5.20;;;;;;;;;;5041599;28;20088;-79
2022/03/25 12:35:01;;;;;;;8.05;5.78;;;;;;;;;;5058682;28;20074;-79
2022/03/25 12:37:28;;;;;;;7.63;5.28;;;;;;;;;;5058201;28;20115;-79
2022/03/25 12:39:53;;;;;;;8.40;5.22;;;;;;;;;;5058058;28;20032;-79
2022/03/25 12:42:19;;;;;;;6.70;5.30;;;;;;;;;;5074728;28;20571;-79
2022/03/25 12:44:44;;;;;;;9.13;5.35;;;;;;;;;;5074814;28;20102;-79
2022/03/25 12:47:15;;;;;;;7.20;5.63;;;;;;;;;;5094628;28;20417;-79
2022/03/25 12:49:41;;;;;;;6.80;5.10;;;;;;;;;;5062921;28;20149;-78
2022/03/25 12:52:06;;;;;;;7.95;5.32;;;;;;;;;;5057207;28;20028;-79
2022/03/25 12:54:34;;;;;;;7.13;5.63;;;;;;;;;;5041386;28;20117;-79
2022/03/25 12:57:01;;;;;;;8.38;5.15;;;;;;;;;;5045733;28;20036;-79
2022/03/25 12:59:32;;;;;;;7.32;4.60;;;;;;;;;;5073844;28;20052;-79
2022/03/25 13:02:13;;;;;;;8.73;5.40;;;;;;;;;;5058065;28;20044;-80
2022/03/25 13:04:38;;;;;;;6.05;4.53;;;;;;;;;;5058613;28;20032;-79
2022/03/25 13:07:11;;;;;;;7.72;4.80;;;;;;;;;;5041064;28;20039;-78
2022/03/25 13:09:37;;;;;;;6.70;4.03;;;;;;;;;;5041328;28;20024;-82
2022/03/25 13:12:03;;;;;;;6.40;4.82;;;;;;;;;;5057457;28;20079;-79
2022/03/25 13:14:29;;;;;;;6.80;4.57;;;;;;;;;;5040836;28;20039;-79
2022/03/25 13:16:54;;;;;;;5.85;4.40;;;;;;;;;;5057448;28;20410;-79
2022/03/25 13:19:30;;;;;;;7.03;4.40;;;;;;;;;;5057402;28;20127;-79
2022/03/25 13:21:56;;;;;;;6.65;4.57;;;;;;;;;;5074293;28;20040;-79
2022/03/25 13:24:21;;;;;;;6.80;4.03;;;;;;;;;;5090618;28;20490;-79
2022/03/25 13:26:47;;;;;;;5.18;3.70;;;;;;;;;;5057285;28;20075;-79
2022/03/25 13:29:12;;;;;;;6.43;4.07;;;;;;;;;;5057479;28;20062;-79
2022/03/25 13:31:38;;;;;;;8.23;3.83;;;;;;;;;;5057613;28;20040;-79
2022/03/25 13:34:03;;;;;;;5.97;4.25;;;;;;;;;;5074215;28;20390;-79
2022/03/25 13:36:30;;;;;;;5.30;3.72;;;;;;;;;;5057159;28;20040;-79
2022/03/25 13:39:06;;;;;;;6.80;3.80;;;;;;;;;;5057557;28;20105;-79
2022/03/25 13:41:33;;;;;;;5.28;3.38;;;;;;;;;;5075383;28;20028;-79
2022/03/25 13:44:09;;;;;;;5.15;3.47;;;;;;;;;;5051253;28;20035;-79
2022/03/25 13:46:35;;;;;;;5.78;3.55;;;;;;;;;;5060927;28;20035;-79
2022/03/25 13:49:02;;;;;;;5.07;3.63;;;;;;;;;;5077065;28;20044;-78
2022/03/25 13:51:29;;;;;;;5.35;4.30;;;;;;;;;;5057017;28;20024;-79
2022/03/25 13:54:10;;;;;;;7.13;4.07;;;;;;;;;;5057199;28;20059;-79
2022/03/25 13:56:49;;;;;;;5.93;3.50;;;;;;;;;;5059141;28;20043;-79
2022/03/25 13:59:34;;;;;;;4.72;3.88;;;;;;;;;;5057513;28;20516;-78
2022/03/25 14:02:00;;;;;;;5.45;4.03;;;;;;;;;;5042036;28;20028;-79
2022/03/25 14:04:28;;;;;;;6.03;4.38;;;;;;;;;;5056555;28;20031;-80
2022/03/25 14:06:55;;;;;;;4.43;3.50;;;;;;;;;;5074253;28;20028;-79
2022/03/25 14:09:26;;;;;;;5.32;3.60;;;;;;;;;;5056924;28;20083;-79
2022/03/25 14:11:52;;;;;;;6.28;3.65;;;;;;;;;;5093934;28;20040;-79
2022/03/25 14:14:31;;;;;;;6.28;4.38;;;;;;;;;;5087173;28;20040;-79
2022/03/25 14:16:57;;;;;;;5.13;3.80;;;;;;;;;;5064707;28;20031;-79
2022/03/25 14:19:23;;;;;;;7.38;3.67;;;;;;;;;;5080598;28;20104;-80
2022/03/25 14:21:48;;;;;;;5.28;3.60;;;;;;;;;;5064594;28;20032;-79
2022/03/25 14:24:34;;;;;;;8.20;4.00;;;;;;;;;;5080496;28;20059;-79
2022/03/25 14:27:01;;;;;;;6.30;3.58;;;;;;;;;;5069740;28;20126;-79